Minnekata, South Dakota
Current Conditions -  °F | °C
As of 5:53 PM on Thursday 18 Dec 2014 (Local Time) from KCUT Reporting Station
Clear Clear  
Wind Chill: 28°   Ceiling: Unl
Heat Index: 28°   Visibility: 10mi
Dew Point: 17°   Wind: 3mph
Humidity: 63%   Direction: 280°W
Pressure: 29.98"   Gusts: NA
Location:  43.346°N, 103.483°W
Report Text: KCUT 190053Z AUTO 28003KT 10SM CLR M02/M08 A2998 RMK AO2 SLP185 T10221083
Loading
Personal Weather Stations






























Interactive Weather Map New forecast layout! Learn more

10-Day Weather Forecast

Advertisements
Track Severe Weather on mobile